sensor_id;sensor_type;location;lat;lon;timestamp;P1;durP1;ratioP1;P2;durP2;ratioP2
22565;SDS011;11449;51.330;19.378;2022-09-16T00:03:08;145.90;;;105.37;;
22565;SDS011;11449;51.330;19.378;2022-09-16T00:08:09;123.80;;;94.67;;
22565;SDS011;11449;51.330;19.378;2022-09-16T00:13:11;108.25;;;83.80;;
22565;SDS011;11449;51.330;19.378;2022-09-16T00:18:12;101.42;;;72.42;;
22565;SDS011;11449;51.330;19.378;2022-09-16T00:23:14;79.05;;;45.15;;
22565;SDS011;11449;51.330;19.378;2022-09-16T00:28:15;57.25;;;35.13;;
22565;SDS011;11449;51.330;19.378;2022-09-16T00:33:16;78.35;;;41.88;;
22565;SDS011;11449;51.330;19.378;2022-09-16T00:38:17;88.90;;;57.67;;
22565;SDS011;11449;51.330;19.378;2022-09-16T00:43:19;82.20;;;41.65;;
22565;SDS011;11449;51.330;19.378;2022-09-16T00:48:21;71.20;;;31.23;;
22565;SDS011;11449;51.330;19.378;2022-09-16T00:53:27;122.85;;;83.87;;
22565;SDS011;11449;51.330;19.378;2022-09-16T00:58:40;184.45;;;113.60;;
22565;SDS011;11449;51.330;19.378;2022-09-16T01:03:44;179.93;;;112.22;;
22565;SDS011;11449;51.330;19.378;2022-09-16T01:08:46;229.90;;;124.58;;
22565;SDS011;11449;51.330;19.378;2022-09-16T01:13:48;240.32;;;124.42;;
22565;SDS011;11449;51.330;19.378;2022-09-16T01:18:53;216.50;;;120.85;;
22565;SDS011;11449;51.330;19.378;2022-09-16T01:34:31;299.80;;;132.17;;
22565;SDS011;11449;51.330;19.378;2022-09-16T01:44:52;347.33;;;132.25;;
22565;SDS011;11449;51.330;19.378;2022-09-16T01:49:57;302.25;;;128.45;;
22565;SDS011;11449;51.330;19.378;2022-09-16T01:54:59;299.60;;;132.18;;
22565;SDS011;11449;51.330;19.378;2022-09-16T02:05:07;245.27;;;127.55;;
22565;SDS011;11449;51.330;19.378;2022-09-16T02:10:09;318.48;;;131.57;;
22565;SDS011;11449;51.330;19.378;2022-09-16T02:15:11;335.73;;;131.30;;
22565;SDS011;11449;51.330;19.378;2022-09-16T02:20:13;344.87;;;129.47;;
22565;SDS011;11449;51.330;19.378;2022-09-16T02:25:17;351.30;;;129.53;;
22565;SDS011;11449;51.330;19.378;2022-09-16T02:30:19;310.65;;;128.42;;
22565;SDS011;11449;51.330;19.378;2022-09-16T02:35:21;310.98;;;127.27;;
22565;SDS011;11449;51.330;19.378;2022-09-16T02:40:23;301.12;;;126.70;;
22565;SDS011;11449;51.330;19.378;2022-09-16T02:45:27;286.07;;;125.50;;
22565;SDS011;11449;51.330;19.378;2022-09-16T02:50:38;304.68;;;127.12;;
22565;SDS011;11449;51.330;19.378;2022-09-16T02:55:43;290.27;;;123.55;;
22565;SDS011;11449;51.330;19.378;2022-09-16T03:00:42;285.30;;;124.33;;
22565;SDS011;11449;51.330;19.378;2022-09-16T03:05:58;235.63;;;117.25;;
22565;SDS011;11449;51.330;19.378;2022-09-16T03:10:51;309.12;;;123.42;;
22565;SDS011;11449;51.330;19.378;2022-09-16T03:26:15;316.02;;;126.12;;
22565;SDS011;11449;51.330;19.378;2022-09-16T03:31:36;315.87;;;124.95;;
22565;SDS011;11449;51.330;19.378;2022-09-16T03:36:19;315.25;;;126.38;;
22565;SDS011;11449;51.330;19.378;2022-09-16T03:41:21;291.02;;;121.87;;
22565;SDS011;11449;51.330;19.378;2022-09-16T03:46:23;243.75;;;119.53;;
22565;SDS011;11449;51.330;19.378;2022-09-16T03:51:24;202.62;;;112.28;;
22565;SDS011;11449;51.330;19.378;2022-09-16T03:56:25;221.37;;;115.65;;
22565;SDS011;11449;51.330;19.378;2022-09-16T04:01:26;234.35;;;116.62;;
22565;SDS011;11449;51.330;19.378;2022-09-16T04:06:27;211.28;;;111.72;;
22565;SDS011;11449;51.330;19.378;2022-09-16T04:11:28;230.00;;;118.20;;
22565;SDS011;11449;51.330;19.378;2022-09-16T04:16:31;219.72;;;114.62;;
22565;SDS011;11449;51.330;19.378;2022-09-16T04:21:32;206.65;;;112.90;;
22565;SDS011;11449;51.330;19.378;2022-09-16T04:26:33;222.52;;;113.28;;
22565;SDS011;11449;51.330;19.378;2022-09-16T04:31:34;274.95;;;120.65;;
22565;SDS011;11449;51.330;19.378;2022-09-16T04:36:35;216.10;;;114.57;;
22565;SDS011;11449;51.330;19.378;2022-09-16T04:41:36;262.08;;;120.37;;
22565;SDS011;11449;51.330;19.378;2022-09-16T04:46:37;285.07;;;119.30;;
22565;SDS011;11449;51.330;19.378;2022-09-16T04:51:38;293.95;;;123.82;;
22565;SDS011;11449;51.330;19.378;2022-09-16T04:56:39;320.35;;;123.10;;
22565;SDS011;11449;51.330;19.378;2022-09-16T05:01:40;323.07;;;126.22;;
22565;SDS011;11449;51.330;19.378;2022-09-16T05:06:41;328.90;;;119.72;;
22565;SDS011;11449;51.330;19.378;2022-09-16T05:11:42;333.60;;;123.60;;
22565;SDS011;11449;51.330;19.378;2022-09-16T05:16:43;320.48;;;121.17;;
22565;SDS011;11449;51.330;19.378;2022-09-16T05:21:44;347.00;;;118.02;;
22565;SDS011;11449;51.330;19.378;2022-09-16T05:26:45;321.80;;;133.97;;
22565;SDS011;11449;51.330;19.378;2022-09-16T05:31:47;314.25;;;129.03;;
22565;SDS011;11449;51.330;19.378;2022-09-16T05:36:48;325.73;;;126.10;;
22565;SDS011;11449;51.330;19.378;2022-09-16T05:41:54;367.27;;;159.80;;
22565;SDS011;11449;51.330;19.378;2022-09-16T05:46:56;361.50;;;144.77;;
22565;SDS011;11449;51.330;19.378;2022-09-16T05:51:57;372.67;;;149.62;;
22565;SDS011;11449;51.330;19.378;2022-09-16T05:56:58;382.43;;;160.52;;
22565;SDS011;11449;51.330;19.378;2022-09-16T06:01:59;377.73;;;154.93;;
22565;SDS011;11449;51.330;19.378;2022-09-16T06:06:59;372.80;;;158.22;;
22565;SDS011;11449;51.330;19.378;2022-09-16T06:12:01;379.65;;;167.00;;
22565;SDS011;11449;51.330;19.378;2022-09-16T06:17:02;379.27;;;157.07;;
22565;SDS011;11449;51.330;19.378;2022-09-16T06:22:03;363.48;;;151.27;;
22565;SDS011;11449;51.330;19.378;2022-09-16T06:27:04;378.05;;;157.32;;
22565;SDS011;11449;51.330;19.378;2022-09-16T06:32:05;366.95;;;125.67;;
22565;SDS011;11449;51.330;19.378;2022-09-16T06:37:06;361.48;;;123.20;;
22565;SDS011;11449;51.330;19.378;2022-09-16T06:42:07;359.77;;;130.65;;
22565;SDS011;11449;51.330;19.378;2022-09-16T06:47:10;342.70;;;128.82;;
22565;SDS011;11449;51.330;19.378;2022-09-16T06:52:11;368.67;;;127.00;;
22565;SDS011;11449;51.330;19.378;2022-09-16T06:57:12;419.90;;;218.78;;
22565;SDS011;11449;51.330;19.378;2022-09-16T07:02:13;364.77;;;136.65;;
22565;SDS011;11449;51.330;19.378;2022-09-16T07:07:14;369.98;;;128.18;;
22565;SDS011;11449;51.330;19.378;2022-09-16T07:12:15;345.48;;;131.90;;
22565;SDS011;11449;51.330;19.378;2022-09-16T07:17:15;369.02;;;126.45;;
22565;SDS011;11449;51.330;19.378;2022-09-16T07:22:16;365.87;;;133.97;;
22565;SDS011;11449;51.330;19.378;2022-09-16T07:27:17;408.83;;;136.70;;
22565;SDS011;11449;51.330;19.378;2022-09-16T07:32:18;368.00;;;129.20;;
22565;SDS011;11449;51.330;19.378;2022-09-16T07:37:19;372.75;;;131.03;;
22565;SDS011;11449;51.330;19.378;2022-09-16T07:42:21;350.45;;;133.22;;
22565;SDS011;11449;51.330;19.378;2022-09-16T07:47:22;339.05;;;133.10;;
22565;SDS011;11449;51.330;19.378;2022-09-16T07:52:23;301.37;;;137.07;;
22565;SDS011;11449;51.330;19.378;2022-09-16T07:57:26;313.57;;;142.80;;
22565;SDS011;11449;51.330;19.378;2022-09-16T08:02:27;298.25;;;136.80;;
22565;SDS011;11449;51.330;19.378;2022-09-16T08:07:28;352.07;;;149.40;;
22565;SDS011;11449;51.330;19.378;2022-09-16T08:12:29;359.15;;;149.02;;
22565;SDS011;11449;51.330;19.378;2022-09-16T08:17:34;366.23;;;145.43;;
22565;SDS011;11449;51.330;19.378;2022-09-16T08:22:35;358.20;;;140.45;;
22565;SDS011;11449;51.330;19.378;2022-09-16T08:27:36;373.98;;;141.75;;
22565;SDS011;11449;51.330;19.378;2022-09-16T08:32:37;363.92;;;138.28;;
22565;SDS011;11449;51.330;19.378;2022-09-16T08:37:38;374.88;;;141.18;;
22565;SDS011;11449;51.330;19.378;2022-09-16T08:42:48;387.75;;;164.32;;
22565;SDS011;11449;51.330;19.378;2022-09-16T08:47:58;379.57;;;168.85;;
22565;SDS011;11449;51.330;19.378;2022-09-16T08:53:02;386.30;;;174.40;;
22565;SDS011;11449;51.330;19.378;2022-09-16T08:58:17;383.98;;;175.75;;
22565;SDS011;11449;51.330;19.378;2022-09-16T09:18:58;303.52;;;186.20;;
22565;SDS011;11449;51.330;19.378;2022-09-16T09:23:59;356.93;;;189.60;;
22565;SDS011;11449;51.330;19.378;2022-09-16T09:29:09;336.65;;;156.80;;
22565;SDS011;11449;51.330;19.378;2022-09-16T09:44:36;88.40;;;73.53;;
22565;SDS011;11449;51.330;19.378;2022-09-16T09:49:43;67.35;;;15.40;;
22565;SDS011;11449;51.330;19.378;2022-09-16T09:54:48;94.00;;;82.47;;
22565;SDS011;11449;51.330;19.378;2022-09-16T09:59:59;56.15;;;7.28;;
22565;SDS011;11449;51.330;19.378;2022-09-16T10:04:59;54.58;;;5.97;;
22565;SDS011;11449;51.330;19.378;2022-09-16T10:10:02;61.10;;;6.00;;
22565;SDS011;11449;51.330;19.378;2022-09-16T10:15:05;53.38;;;5.90;;
22565;SDS011;11449;51.330;19.378;2022-09-16T10:20:20;51.40;;;5.28;;
22565;SDS011;11449;51.330;19.378;2022-09-16T10:25:22;57.88;;;5.83;;
22565;SDS011;11449;51.330;19.378;2022-09-16T10:30:19;45.78;;;4.70;;
22565;SDS011;11449;51.330;19.378;2022-09-16T10:35:26;68.47;;;6.55;;
22565;SDS011;11449;51.330;19.378;2022-09-16T10:40:27;49.08;;;5.20;;
22565;SDS011;11449;51.330;19.378;2022-09-16T10:45:29;57.58;;;5.92;;
22565;SDS011;11449;51.330;19.378;2022-09-16T10:50:30;46.95;;;5.25;;
22565;SDS011;11449;51.330;19.378;2022-09-16T10:55:32;17.60;;;3.17;;
22565;SDS011;11449;51.330;19.378;2022-09-16T11:00:48;55.28;;;5.95;;
22565;SDS011;11449;51.330;19.378;2022-09-16T11:10:58;6.05;;;2.77;;
22565;SDS011;11449;51.330;19.378;2022-09-16T11:16:18;5.87;;;2.40;;
22565;SDS011;11449;51.330;19.378;2022-09-16T11:26:27;8.35;;;2.33;;
22565;SDS011;11449;51.330;19.378;2022-09-16T11:41:39;12.93;;;2.50;;
22565;SDS011;11449;51.330;19.378;2022-09-16T11:46:51;15.08;;;2.87;;
22565;SDS011;11449;51.330;19.378;2022-09-16T11:57:10;30.20;;;3.87;;
22565;SDS011;11449;51.330;19.378;2022-09-16T12:07:32;9.47;;;2.70;;
22565;SDS011;11449;51.330;19.378;2022-09-16T12:12:38;10.95;;;3.05;;
22565;SDS011;11449;51.330;19.378;2022-09-16T12:17:36;168.45;;;115.82;;
22565;SDS011;11449;51.330;19.378;2022-09-16T12:22:46;241.57;;;217.28;;
22565;SDS011;11449;51.330;19.378;2022-09-16T12:27:59;145.72;;;131.70;;
22565;SDS011;11449;51.330;19.378;2022-09-16T12:38:18;51.27;;;5.33;;
22565;SDS011;11449;51.330;19.378;2022-09-16T13:04:10;131.55;;;104.15;;
22565;SDS011;11449;51.330;19.378;2022-09-16T13:09:19;178.72;;;160.03;;
22565;SDS011;11449;51.330;19.378;2022-09-16T13:14:24;215.05;;;190.55;;
22565;SDS011;11449;51.330;19.378;2022-09-16T13:24:30;172.85;;;154.38;;
22565;SDS011;11449;51.330;19.378;2022-09-16T13:29:41;229.30;;;173.30;;
22565;SDS011;11449;51.330;19.378;2022-09-16T13:34:43;174.57;;;155.63;;
22565;SDS011;11449;51.330;19.378;2022-09-16T13:39:44;5.92;;;1.07;;
22565;SDS011;11449;51.330;19.378;2022-09-16T13:44:45;1.57;;;0.50;;
22565;SDS011;11449;51.330;19.378;2022-09-16T13:49:49;0.78;;;0.60;;
22565;SDS011;11449;51.330;19.378;2022-09-16T13:54:52;2.37;;;0.80;;
22565;SDS011;11449;51.330;19.378;2022-09-16T14:10:28;2.22;;;1.35;;
22565;SDS011;11449;51.330;19.378;2022-09-16T14:15:26;3.45;;;1.40;;
22565;SDS011;11449;51.330;19.378;2022-09-16T14:20:27;1.95;;;1.10;;
22565;SDS011;11449;51.330;19.378;2022-09-16T14:25:32;144.43;;;58.55;;
22565;SDS011;11449;51.330;19.378;2022-09-16T14:30:35;13.00;;;6.37;;
22565;SDS011;11449;51.330;19.378;2022-09-16T14:35:36;2.60;;;1.37;;
22565;SDS011;11449;51.330;19.378;2022-09-16T14:40:37;3.65;;;1.20;;
22565;SDS011;11449;51.330;19.378;2022-09-16T14:45:42;1.52;;;1.37;;
22565;SDS011;11449;51.330;19.378;2022-09-16T14:50:43;6.08;;;1.95;;
22565;SDS011;11449;51.330;19.378;2022-09-16T14:55:47;5.37;;;3.17;;
22565;SDS011;11449;51.330;19.378;2022-09-16T15:01:10;5.58;;;2.20;;
22565;SDS011;11449;51.330;19.378;2022-09-16T15:05:50;2.85;;;1.90;;
22565;SDS011;11449;51.330;19.378;2022-09-16T15:10:53;7.78;;;2.70;;
22565;SDS011;11449;51.330;19.378;2022-09-16T15:15:59;4.67;;;2.90;;
22565;SDS011;11449;51.330;19.378;2022-09-16T15:21:05;6.35;;;3.10;;
22565;SDS011;11449;51.330;19.378;2022-09-16T15:26:15;3.40;;;2.00;;
22565;SDS011;11449;51.330;19.378;2022-09-16T15:31:24;4.30;;;2.70;;
22565;SDS011;11449;51.330;19.378;2022-09-16T15:36:31;4.65;;;1.87;;
22565;SDS011;11449;51.330;19.378;2022-09-16T15:41:32;8.53;;;3.50;;
22565;SDS011;11449;51.330;19.378;2022-09-16T15:46:33;5.70;;;4.22;;
22565;SDS011;11449;51.330;19.378;2022-09-16T15:51:42;4.28;;;2.80;;
22565;SDS011;11449;51.330;19.378;2022-09-16T15:56:38;4.35;;;2.25;;
22565;SDS011;11449;51.330;19.378;2022-09-16T16:01:42;5.60;;;1.90;;
22565;SDS011;11449;51.330;19.378;2022-09-16T16:06:47;4.00;;;2.10;;
22565;SDS011;11449;51.330;19.378;2022-09-16T16:11:48;3.40;;;2.47;;
22565;SDS011;11449;51.330;19.378;2022-09-16T16:16:50;5.10;;;2.77;;
22565;SDS011;11449;51.330;19.378;2022-09-16T16:21:51;7.12;;;3.08;;
22565;SDS011;11449;51.330;19.378;2022-09-16T16:26:53;9.15;;;4.20;;
22565;SDS011;11449;51.330;19.378;2022-09-16T16:37:00;10.80;;;5.42;;
22565;SDS011;11449;51.330;19.378;2022-09-16T16:42:01;10.88;;;5.45;;
22565;SDS011;11449;51.330;19.378;2022-09-16T16:47:04;10.68;;;7.80;;
22565;SDS011;11449;51.330;19.378;2022-09-16T16:52:05;18.25;;;11.57;;
22565;SDS011;11449;51.330;19.378;2022-09-16T16:57:06;10.20;;;6.95;;
22565;SDS011;11449;51.330;19.378;2022-09-16T17:02:08;36.55;;;16.30;;
22565;SDS011;11449;51.330;19.378;2022-09-16T17:07:09;33.67;;;15.58;;
22565;SDS011;11449;51.330;19.378;2022-09-16T17:12:11;20.60;;;10.35;;
22565;SDS011;11449;51.330;19.378;2022-09-16T17:17:12;31.40;;;16.07;;
22565;SDS011;11449;51.330;19.378;2022-09-16T17:22:13;23.27;;;13.70;;
22565;SDS011;11449;51.330;19.378;2022-09-16T17:27:14;26.25;;;13.13;;
22565;SDS011;11449;51.330;19.378;2022-09-16T17:32:16;41.33;;;17.77;;
22565;SDS011;11449;51.330;19.378;2022-09-16T17:37:19;50.08;;;25.05;;
22565;SDS011;11449;51.330;19.378;2022-09-16T17:42:19;33.78;;;15.10;;
22565;SDS011;11449;51.330;19.378;2022-09-16T17:47:20;25.45;;;13.55;;
22565;SDS011;11449;51.330;19.378;2022-09-16T17:52:21;13.18;;;5.55;;
22565;SDS011;11449;51.330;19.378;2022-09-16T17:57:22;11.15;;;6.75;;
22565;SDS011;11449;51.330;19.378;2022-09-16T18:02:25;9.53;;;5.30;;
22565;SDS011;11449;51.330;19.378;2022-09-16T18:07:26;7.83;;;5.12;;
22565;SDS011;11449;51.330;19.378;2022-09-16T18:12:27;10.20;;;5.05;;
22565;SDS011;11449;51.330;19.378;2022-09-16T18:17:28;9.38;;;5.33;;
22565;SDS011;11449;51.330;19.378;2022-09-16T18:22:29;9.90;;;4.45;;
22565;SDS011;11449;51.330;19.378;2022-09-16T18:27:30;8.75;;;4.12;;
22565;SDS011;11449;51.330;19.378;2022-09-16T18:32:31;6.72;;;3.35;;
22565;SDS011;11449;51.330;19.378;2022-09-16T18:37:32;5.12;;;3.33;;
22565;SDS011;11449;51.330;19.378;2022-09-16T18:42:33;6.85;;;3.55;;
22565;SDS011;11449;51.330;19.378;2022-09-16T18:47:34;4.85;;;3.20;;
22565;SDS011;11449;51.330;19.378;2022-09-16T18:52:35;5.17;;;2.85;;
22565;SDS011;11449;51.330;19.378;2022-09-16T18:57:36;3.35;;;2.30;;
22565;SDS011;11449;51.330;19.378;2022-09-16T19:02:37;5.15;;;2.70;;
22565;SDS011;11449;51.330;19.378;2022-09-16T19:07:38;3.33;;;2.15;;
22565;SDS011;11449;51.330;19.378;2022-09-16T19:12:38;4.47;;;2.55;;
22565;SDS011;11449;51.330;19.378;2022-09-16T19:17:39;3.83;;;2.27;;
22565;SDS011;11449;51.330;19.378;2022-09-16T19:22:40;3.45;;;2.12;;
22565;SDS011;11449;51.330;19.378;2022-09-16T19:27:41;3.27;;;2.20;;
22565;SDS011;11449;51.330;19.378;2022-09-16T19:32:42;6.42;;;3.15;;
22565;SDS011;11449;51.330;19.378;2022-09-16T19:37:42;5.58;;;2.70;;
22565;SDS011;11449;51.330;19.378;2022-09-16T19:42:43;6.45;;;2.87;;
22565;SDS011;11449;51.330;19.378;2022-09-16T19:47:45;9.83;;;5.00;;
22565;SDS011;11449;51.330;19.378;2022-09-16T19:52:45;8.53;;;5.62;;
22565;SDS011;11449;51.330;19.378;2022-09-16T19:57:46;12.07;;;5.75;;
22565;SDS011;11449;51.330;19.378;2022-09-16T20:02:47;9.78;;;4.83;;
22565;SDS011;11449;51.330;19.378;2022-09-16T20:07:49;6.40;;;3.27;;
22565;SDS011;11449;51.330;19.378;2022-09-16T20:12:50;5.40;;;3.30;;
22565;SDS011;11449;51.330;19.378;2022-09-16T20:17:52;9.55;;;3.55;;
22565;SDS011;11449;51.330;19.378;2022-09-16T20:22:53;7.90;;;3.37;;
22565;SDS011;11449;51.330;19.378;2022-09-16T20:27:54;3.92;;;2.87;;
22565;SDS011;11449;51.330;19.378;2022-09-16T20:32:55;11.50;;;5.35;;
22565;SDS011;11449;51.330;19.378;2022-09-16T20:37:56;9.38;;;3.62;;
22565;SDS011;11449;51.330;19.378;2022-09-16T20:42:57;8.78;;;3.37;;
22565;SDS011;11449;51.330;19.378;2022-09-16T20:47:58;8.40;;;2.83;;
22565;SDS011;11449;51.330;19.378;2022-09-16T20:52:59;5.15;;;2.52;;
22565;SDS011;11449;51.330;19.378;2022-09-16T20:58:01;6.22;;;2.50;;
22565;SDS011;11449;51.330;19.378;2022-09-16T21:03:02;8.43;;;2.80;;
22565;SDS011;11449;51.330;19.378;2022-09-16T21:08:03;6.15;;;2.70;;
22565;SDS011;11449;51.330;19.378;2022-09-16T21:13:04;5.40;;;2.67;;
22565;SDS011;11449;51.330;19.378;2022-09-16T21:18:06;9.68;;;2.80;;
22565;SDS011;11449;51.330;19.378;2022-09-16T21:23:06;5.22;;;2.52;;
22565;SDS011;11449;51.330;19.378;2022-09-16T21:28:07;6.25;;;2.77;;
22565;SDS011;11449;51.330;19.378;2022-09-16T21:33:08;6.20;;;2.42;;
22565;SDS011;11449;51.330;19.378;2022-09-16T21:38:09;4.28;;;2.35;;
22565;SDS011;11449;51.330;19.378;2022-09-16T21:43:10;5.72;;;2.77;;
22565;SDS011;11449;51.330;19.378;2022-09-16T21:48:11;6.37;;;2.70;;
22565;SDS011;11449;51.330;19.378;2022-09-16T21:53:14;7.83;;;3.08;;
22565;SDS011;11449;51.330;19.378;2022-09-16T21:58:15;4.80;;;2.77;;
22565;SDS011;11449;51.330;19.378;2022-09-16T22:03:16;4.55;;;3.15;;
22565;SDS011;11449;51.330;19.378;2022-09-16T22:08:17;5.12;;;2.70;;
22565;SDS011;11449;51.330;19.378;2022-09-16T22:13:18;5.37;;;3.12;;
22565;SDS011;11449;51.330;19.378;2022-09-16T22:18:19;5.40;;;2.90;;
22565;SDS011;11449;51.330;19.378;2022-09-16T22:23:20;5.28;;;2.58;;
22565;SDS011;11449;51.330;19.378;2022-09-16T22:28:21;5.30;;;2.70;;
22565;SDS011;11449;51.330;19.378;2022-09-16T22:33:22;5.50;;;2.65;;
22565;SDS011;11449;51.330;19.378;2022-09-16T22:38:22;5.00;;;2.70;;
22565;SDS011;11449;51.330;19.378;2022-09-16T22:43:23;4.20;;;2.80;;
22565;SDS011;11449;51.330;19.378;2022-09-16T22:48:24;5.47;;;2.33;;
22565;SDS011;11449;51.330;19.378;2022-09-16T22:53:25;4.25;;;2.65;;
22565;SDS011;11449;51.330;19.378;2022-09-16T22:58:27;2.95;;;2.10;;
22565;SDS011;11449;51.330;19.378;2022-09-16T23:03:28;3.42;;;2.52;;
22565;SDS011;11449;51.330;19.378;2022-09-16T23:08:30;3.70;;;2.62;;
22565;SDS011;11449;51.330;19.378;2022-09-16T23:13:31;4.50;;;2.30;;
22565;SDS011;11449;51.330;19.378;2022-09-16T23:18:33;5.95;;;2.83;;
22565;SDS011;11449;51.330;19.378;2022-09-16T23:23:35;6.92;;;2.85;;
22565;SDS011;11449;51.330;19.378;2022-09-16T23:28:37;9.80;;;2.85;;
22565;SDS011;11449;51.330;19.378;2022-09-16T23:33:38;7.70;;;3.65;;
22565;SDS011;11449;51.330;19.378;2022-09-16T23:38:40;9.75;;;3.92;;
22565;SDS011;11449;51.330;19.378;2022-09-16T23:43:41;7.90;;;3.05;;
22565;SDS011;11449;51.330;19.378;2022-09-16T23:48:43;6.53;;;3.00;;
22565;SDS011;11449;51.330;19.378;2022-09-16T23:53:44;4.75;;;2.58;;
22565;SDS011;11449;51.330;19.378;2022-09-16T23:58:45;5.40;;;2.58;;
